Ana Sayfa
METAR-TAF:

METAR-TAF

Havaalanları :

Malé, Maldivler

Enlem: 04-12N, Boylam: 073-32E, yükseklik: 2 m

Güncel hava durumu gözlemi

Rapor saat 11:00 UTC de 52 dakika önce yapıldı.
Rüzgar doğu/kuzeydoğudan 12 kt
Sıcaklık 30°C
Nem 62%
Basınç 1007 hPa
Görüş mesafesi 10 km veya daha fazla
1900 ft yükseklikte az bulutlu

METAR: VRMM 231100Z 07012KT 9999 FEW019 30/22 Q1007 NOSIG

Saat: 16:52 (11:52 UTC)

Tahmin

Rapor saat 11:00 UTC de 52 dakika önce yapıldı.
Ayın 23'si saat 12 UTC'den ayın 24'si saat 18 UTC'ye kadar geçerli Tahmin
Rüzgar doğu/kuzeydoğudan 12 kt
Görüş mesafesi: 9000 m
1900 ft yükseklikte az bulutlu

TAF: VRMM 231100Z 2312/2418 07012KT 9000 FEW019

4.000'den fazla havaalanı için hava durumu gözlemleri ve tahminleri (METAR ve TAF raporları).

Kullanılabilir istasyonlar harita üzerinde sarı ve kırmızı noktalarla gösterilir.

İstasyonun adını görmek için fareyi noktanın üzerinde gezdirin.

Sonrasında hava gözlem ve tahminlerini görmek için tıklayın.

Haritayı değiştirmek için: yaklaştırmak için siyah artı işaretli yeşil düğmeye ve uzaklaştırmak için de eksi işaretli düğmeye hızla tıklayın; bitişik haritalar için yeşil okları kullanın.


METAR-TAF: